SBMQ/MCP METAR and TAF weather

Enter ICAO airport designator
Station Type Date Time Source
SBMQ METAR 2022/12/10 01:00 UTC NOAA

SBMQ 100100Z 05007KT CAVOK 27/25 Q1010


Station Type Date Time Source
SBMQ Decoded METAR 2022/12/10 01:00 UTC NOAA

Macapa, Brazil (SBMQ) 00-02N 050-03W
Dec 09, 2022 - 08:00 PM EST / 2022.12.10 0100 UTC
Wind: from the NE (050 degrees) at 8 MPH (7 KT):0
Visibility: greater than 7 mile(s):0
Temperature: 80 F (27 C)
Dew Point: 77 F (25 C)
Relative Humidity: 88%
Pressure (altimeter): 29.83 in. Hg (1010 hPa)
ob: SBMQ 100100Z 05007KT CAVOK 27/25 Q1010
cycle: 1

Station Type Date Time Source
SBMQ TAF 2022/12/10 06:03 UTC NOAA

TAF SBMQ 100100Z 1006/1106 05005KT 8000 SCT010 TN25/1009Z TX32/1017Z
BECMG 1006/1008 02005KT
BECMG 1013/1016 09008KT BKN023 FEW030TCU PROB40
TEMPO 1017/1021 TS BKN023 FEW030CB
BECMG 1021/1023 05007KT FEW023
BECMG 1100/1102 01005KT
RMK PHC

Example: see airport list